Time;durP1;ratioP1;P1;durP2;ratioP2;P2;SDS_P1;SDS_P2;PMS_P1;PMS_P2;Temp;Humidity;BMP_temperature;BMP_pressure;BME280_temperature;BME280_humidity;BME280_pressure;Samples;Min_cycle;Max_cycle;Signal;HPM_P1;HPM_P2
2022/10/10 12:49:24;;;;;;;152.02;49.63;;;20.20;56.70;;;;;;6196488;22;1218279;-66
2022/10/10 12:52:06;;;;;;;210.10;65.93;;;20.10;56.80;;;;;;6255914;22;20032;-80
2022/10/10 12:54:43;;;;;;;240.75;77.70;;;20.20;57.00;;;;;;6249870;22;20389;-89
2022/10/10 12:57:24;;;;;;;237.70;74.95;;;20.20;57.30;;;;;;6244866;22;20110;-80
2022/10/10 12:59:50;;;;;;;220.10;72.82;;;20.20;57.70;;;;;;6226660;22;20026;-80
2022/10/10 13:02:24;;;;;;;223.93;73.30;;;20.30;57.80;;;;;;6256159;22;20012;-87
2022/10/10 13:04:55;;;;;;;236.73;74.72;;;20.20;58.40;;;;;;6255853;22;20023;-84
2022/10/10 13:07:21;;;;;;;219.13;71.20;;;20.10;58.40;;;;;;6255570;22;20062;-83
2022/10/10 13:09:53;;;;;;;214.30;72.18;;;20.30;58.70;;;;;;6258432;22;20047;-79
2022/10/10 13:12:24;;;;;;;206.30;69.90;;;20.30;59.00;;;;;;6255120;22;20019;-76
2022/10/10 13:14:50;;;;;;;224.32;69.72;;;20.30;59.10;;;;;;6258386;22;20023;-73
2022/10/10 13:17:24;;;;;;;201.85;68.80;;;20.30;59.20;;;;;;6256922;22;20465;-81
2022/10/10 13:19:51;;;;;;;205.77;66.97;;;20.30;59.30;;;;;;6235655;22;20024;-76
2022/10/10 13:22:18;;;;;;;186.30;65.38;;;20.30;59.40;;;;;;6230167;22;20050;-74
2022/10/10 13:24:46;;;;;;;190.93;65.65;;;20.30;59.50;;;;;;6247845;22;20121;-74
2022/10/10 13:27:24;;;;;;;182.03;63.80;;;20.30;59.60;;;;;;6255232;22;20019;-74
2022/10/10 13:29:51;;;;;;;169.38;58.60;;;20.30;59.50;;;;;;6255238;22;20109;-73
2022/10/10 13:32:28;;;;;;;172.23;58.40;;;20.30;59.50;;;;;;6256818;22;20031;-71
2022/10/10 13:34:57;;;;;;;147.63;56.00;;;20.30;59.60;;;;;;6230072;22;20390;-76
2022/10/10 13:37:24;;;;;;;160.27;54.75;;;20.30;59.60;;;;;;6229688;22;20666;-74
2022/10/10 13:39:52;;;;;;;161.15;54.35;;;20.30;59.60;;;;;;6257402;22;20046;-75
2022/10/10 13:42:35;;;;;;;144.13;52.03;;;20.30;59.60;;;;;;6253172;22;20094;-73
2022/10/10 13:45:21;;;;;;;143.02;51.28;;;20.30;59.70;;;;;;6246807;22;20523;-73
2022/10/10 13:47:59;;;;;;;135.57;48.75;;;20.30;59.80;;;;;;6229028;22;20031;-72
2022/10/10 13:50:30;;;;;;;140.68;51.42;;;20.30;59.90;;;;;;6233303;22;20694;-71
2022/10/10 13:53:30;;;;;;;133.90;49.58;;;20.30;59.80;;;;;;6256754;22;20404;-78
2022/10/10 13:56:06;;;;;;;131.70;45.78;;;20.30;59.70;;;;;;6233398;22;20699;-77
2022/10/10 13:58:37;;;;;;;126.65;44.35;;;20.30;59.80;;;;;;6256326;22;20024;-76
2022/10/10 14:01:03;;;;;;;123.65;42.83;;;20.30;59.80;;;;;;6256840;22;20049;-76
2022/10/10 14:03:31;;;;;;;116.65;41.55;;;20.30;59.80;;;;;;6257650;22;20024;-75
2022/10/10 14:05:57;;;;;;;114.90;42.88;;;20.30;59.80;;;;;;6261314;22;20023;-76
2022/10/10 14:08:26;;;;;;;113.32;40.92;;;20.30;59.80;;;;;;6234855;22;20278;-78
2022/10/10 14:11:02;;;;;;;115.43;41.65;;;20.30;59.90;;;;;;6259139;22;20028;-77
2022/10/10 14:16:27;;;;;;;105.63;38.35;;;20.30;59.90;;;;;;6256905;22;20364;-79
2022/10/10 14:18:53;;;;;;;104.38;38.17;;;20.30;59.90;;;;;;6260373;22;20644;-77
2022/10/10 14:21:19;;;;;;;97.80;37.20;;;20.30;60.70;;;;;;6259223;22;20066;-76
2022/10/10 14:23:45;;;;;;;100.22;36.67;;;20.30;60.00;;;;;;6250062;22;20193;-77
2022/10/10 14:26:15;;;;;;;102.50;35.75;;;20.30;60.00;;;;;;6256096;22;20023;-76
2022/10/10 14:28:41;;;;;;;89.85;35.53;;;20.30;60.00;;;;;;6231395;22;20332;-78
2022/10/10 14:31:06;;;;;;;94.97;35.63;;;20.30;60.00;;;;;;6260787;22;20024;-77
2022/10/10 14:33:32;;;;;;;93.00;33.58;;;20.30;60.00;;;;;;6234556;22;20047;-78
2022/10/10 14:35:59;;;;;;;80.63;32.33;;;20.30;60.00;;;;;;6232309;22;20455;-78
2022/10/10 14:38:25;;;;;;;88.85;32.15;;;20.30;60.00;;;;;;6260740;22;20046;-76
2022/10/10 14:40:52;;;;;;;85.93;32.35;;;20.30;60.10;;;;;;6261016;22;20032;-76
2022/10/10 14:43:21;;;;;;;82.35;31.42;;;20.30;60.00;;;;;;6235766;22;20061;-78
2022/10/10 14:45:49;;;;;;;85.63;31.58;;;20.30;60.00;;;;;;6258819;22;20124;-78
2022/10/10 14:48:16;;;;;;;81.03;31.05;;;20.30;60.10;;;;;;6233965;22;20027;-77
2022/10/10 14:50:44;;;;;;;75.22;29.23;;;20.30;60.10;;;;;;6257503;22;20059;-77
2022/10/10 14:53:11;;;;;;;77.05;29.10;;;20.30;60.10;;;;;;6230805;22;20027;-78
2022/10/10 14:55:41;;;;;;;75.43;28.35;;;20.30;60.10;;;;;;6235110;22;20022;-80
2022/10/10 14:58:13;;;;;;;71.45;27.30;;;20.30;60.00;;;;;;6232840;22;20023;-75
2022/10/10 15:00:39;;;;;;;73.15;27.80;;;20.30;60.00;;;;;;6260399;22;20039;-75
2022/10/10 15:03:04;;;;;;;65.63;26.33;;;20.30;60.00;;;;;;6260837;22;20015;-76
2022/10/10 15:05:30;;;;;;;68.03;25.67;;;20.30;60.00;;;;;;6258466;22;20215;-77
2022/10/10 15:07:56;;;;;;;73.22;26.75;;;20.30;60.00;;;;;;6250755;22;20481;-75
2022/10/10 15:10:21;;;;;;;61.17;24.35;;;20.30;60.00;;;;;;6256349;22;20027;-74
2022/10/10 15:12:48;;;;;;;63.58;24.45;;;20.20;59.80;;;;;;6259979;22;20026;-74
2022/10/10 15:15:14;;;;;;;61.35;23.92;;;20.20;59.80;;;;;;6255354;22;20348;-78
2022/10/10 15:17:39;;;;;;;56.78;23.10;;;20.20;59.80;;;;;;6260327;22;20050;-76
2022/10/10 15:20:08;;;;;;;60.20;23.52;;;20.30;60.00;;;;;;6258196;22;20037;-72
2022/10/10 15:22:34;;;;;;;59.75;21.90;;;20.30;60.00;;;;;;6231928;22;20023;-76
2022/10/10 15:25:00;;;;;;;52.17;21.10;;;20.30;60.00;;;;;;6259009;22;20087;-72
2022/10/10 15:27:31;;;;;;;57.17;21.77;;;20.30;60.10;;;;;;6260642;22;20416;-76
2022/10/10 15:29:57;;;;;;;53.67;20.83;;;20.30;60.10;;;;;;6229475;22;20137;-72
2022/10/10 15:32:23;;;;;;;54.78;21.08;;;20.30;60.30;;;;;;6256447;22;20411;-72
2022/10/10 15:34:49;;;;;;;60.67;21.85;;;20.30;60.30;;;;;;6257645;22;20156;-71
2022/10/10 15:37:16;;;;;;;54.45;20.40;;;20.30;60.30;;;;;;6254697;22;20035;-71
2022/10/10 15:39:43;;;;;;;50.55;19.27;;;20.30;60.20;;;;;;6257662;22;20019;-72
2022/10/10 15:42:13;;;;;;;43.17;17.88;;;20.20;60.20;;;;;;6256857;22;20445;-72
2022/10/10 15:44:44;;;;;;;40.25;17.85;;;20.30;60.20;;;;;;6231984;22;20102;-72
2022/10/10 15:47:11;;;;;;;48.17;19.10;;;20.20;60.20;;;;;;6260064;22;20019;-72
2022/10/10 15:49:41;;;;;;;42.28;17.35;;;20.20;60.20;;;;;;6255373;22;20153;-73
2022/10/10 15:52:07;;;;;;;43.92;16.67;;;20.20;60.20;;;;;;6258130;22;20023;-76
2022/10/10 15:54:33;;;;;;;41.60;16.60;;;20.20;60.20;;;;;;6230234;22;20866;-74
2022/10/10 15:56:59;;;;;;;39.90;16.75;;;20.20;60.40;;;;;;6207117;22;20016;-73
2022/10/10 15:59:24;;;;;;;41.78;16.45;;;20.20;60.50;;;;;;6258756;22;20027;-72
2022/10/10 16:01:50;;;;;;;36.45;15.20;;;20.20;60.60;;;;;;6230981;22;20020;-73
2022/10/10 16:04:15;;;;;;;35.00;14.82;;;20.20;60.60;;;;;;6257121;22;20500;-74
2022/10/10 16:06:41;;;;;;;37.45;15.52;;;20.20;60.70;;;;;;6257955;22;20029;-73
2022/10/10 16:09:07;;;;;;;35.53;14.48;;;20.20;60.90;;;;;;6256009;22;20057;-73
2022/10/10 16:11:35;;;;;;;37.30;15.68;;;20.20;61.30;;;;;;6256183;22;20344;-74
2022/10/10 16:14:01;;;;;;;37.42;15.50;;;20.20;61.60;;;;;;6233085;22;20137;-74
2022/10/10 16:16:27;;;;;;;36.63;13.88;;;20.20;61.90;;;;;;6255403;22;20061;-74
2022/10/10 16:18:54;;;;;;;35.80;15.48;;;20.20;62.20;;;;;;6256410;22;20031;-70
2022/10/10 16:21:22;;;;;;;32.03;14.00;;;20.10;62.40;;;;;;6255400;22;20418;-75
2022/10/10 16:23:49;;;;;;;35.35;15.43;;;20.10;62.60;;;;;;6256458;22;20525;-75
2022/10/10 16:26:21;;;;;;;38.50;15.02;;;20.20;62.80;;;;;;6258584;22;20043;-79
2022/10/10 16:28:47;;;;;;;34.40;13.57;;;20.10;63.00;;;;;;6255389;22;20066;-75
2022/10/10 16:31:15;;;;;;;31.48;13.70;;;20.20;63.60;;;;;;6231629;22;20055;-77
2022/10/10 16:33:42;;;;;;;31.77;13.90;;;20.20;63.90;;;;;;6255810;22;20038;-75
2022/10/10 16:36:34;;;;;;;33.78;14.25;;;20.20;63.90;;;;;;6257505;22;20039;-75
2022/10/10 16:39:00;;;;;;;36.67;14.38;;;20.20;63.90;;;;;;6250569;22;20024;-76
2022/10/10 16:41:28;;;;;;;36.05;13.90;;;20.20;63.80;;;;;;6255677;22;20113;-75
2022/10/10 16:43:54;;;;;;;32.42;13.63;;;20.20;63.80;;;;;;6257882;22;20023;-75
2022/10/10 16:46:22;;;;;;;34.58;13.82;;;20.20;63.60;;;;;;6254342;22;20027;-76
2022/10/10 16:48:48;;;;;;;32.38;12.38;;;20.20;64.40;;;;;;6259137;22;20069;-76
2022/10/10 16:51:18;;;;;;;29.15;13.18;;;20.20;63.50;;;;;;6257754;22;20458;-77
2022/10/10 16:53:44;;;;;;;36.45;13.60;;;20.20;63.50;;;;;;6257180;22;20371;-75
2022/10/10 16:56:12;;;;;;;31.98;13.20;;;20.20;63.50;;;;;;6256483;22;20031;-75
2022/10/10 16:58:38;;;;;;;38.17;13.50;;;20.20;63.50;;;;;;6257192;22;20028;-75
2022/10/10 17:01:16;;;;;;;27.08;12.48;;;20.20;63.40;;;;;;6258810;22;20852;-74
2022/10/10 17:03:42;;;;;;;30.95;12.38;;;20.20;63.40;;;;;;6255179;22;20450;-74
2022/10/10 17:06:14;;;;;;;27.23;12.00;;;20.10;63.30;;;;;;6259027;22;20015;-76
2022/10/10 17:08:40;;;;;;;29.27;11.85;;;20.10;63.40;;;;;;6256123;22;20066;-73
2022/10/10 17:11:06;;;;;;;30.98;12.27;;;20.20;63.40;;;;;;6256648;22;20107;-73
2022/10/10 17:13:37;;;;;;;27.25;11.85;;;20.20;63.50;;;;;;6230533;22;20098;-74
2022/10/10 17:16:05;;;;;;;26.55;11.40;;;20.20;63.50;;;;;;6258896;22;20079;-75
2022/10/10 17:18:30;;;;;;;27.60;11.00;;;20.20;63.60;;;;;;6256590;22;20023;-76
2022/10/10 17:20:56;;;;;;;28.83;11.45;;;20.10;63.40;;;;;;6255518;22;20470;-75
2022/10/10 17:23:21;;;;;;;29.27;11.52;;;20.20;63.40;;;;;;6254982;22;20012;-76
2022/10/10 17:25:47;;;;;;;28.05;11.32;;;20.10;63.30;;;;;;6257569;22;20023;-74
2022/10/10 17:28:13;;;;;;;28.30;11.45;;;20.10;63.30;;;;;;6256860;22;20681;-72
2022/10/10 17:30:47;;;;;;;30.50;11.20;;;20.10;63.40;;;;;;6253611;22;20343;-78
2022/10/10 17:33:14;;;;;;;27.38;11.02;;;20.10;63.30;;;;;;6254888;22;20026;-77
2022/10/10 17:35:40;;;;;;;25.00;10.27;;;20.10;63.30;;;;;;6252696;22;20015;-79
2022/10/10 17:38:07;;;;;;;25.08;10.02;;;20.10;63.30;;;;;;6256492;22;20141;-77
2022/10/10 17:40:32;;;;;;;21.33;10.23;;;20.00;63.20;;;;;;6250732;22;20329;-78
2022/10/10 17:42:58;;;;;;;24.05;9.50;;;20.00;63.00;;;;;;6256778;22;20022;-78
2022/10/10 17:45:23;;;;;;;22.77;9.18;;;20.00;62.90;;;;;;6253032;22;20098;-72
2022/10/10 17:47:49;;;;;;;22.55;8.80;;;20.00;62.70;;;;;;6227777;22;20023;-73
2022/10/10 17:50:15;;;;;;;23.77;8.65;;;20.00;62.60;;;;;;6256572;22;20020;-72
2022/10/10 17:52:40;;;;;;;20.15;8.23;;;20.00;62.60;;;;;;6251319;22;20047;-72
2022/10/10 17:55:06;;;;;;;19.13;8.52;;;20.00;62.50;;;;;;6256782;22;20087;-73
2022/10/10 17:57:33;;;;;;;19.45;8.20;;;20.10;62.40;;;;;;6252556;22;20019;-72
2022/10/10 18:00:00;;;;;;;25.15;8.68;;;20.00;62.20;;;;;;6256633;22;20016;-73
2022/10/10 18:02:26;;;;;;;19.13;8.00;;;20.10;62.30;;;;;;6230586;22;20016;-74
2022/10/10 18:04:51;;;;;;;17.30;7.80;;;20.00;62.10;;;;;;6257810;22;20042;-74
2022/10/10 18:07:17;;;;;;;18.95;7.40;;;20.10;62.10;;;;;;6257937;22;20016;-73
2022/10/10 18:09:43;;;;;;;21.05;8.13;;;20.00;61.90;;;;;;6256858;22;20111;-74
2022/10/10 18:12:09;;;;;;;18.55;7.80;;;20.00;61.80;;;;;;6231683;22;20301;-72
2022/10/10 18:14:35;;;;;;;18.70;7.35;;;20.20;61.80;;;;;;6254497;22;20107;-74
2022/10/10 18:17:01;;;;;;;23.08;7.93;;;20.00;61.50;;;;;;6258074;22;20113;-72
2022/10/10 18:19:27;;;;;;;19.92;8.02;;;20.00;61.50;;;;;;6258366;22;20111;-72
2022/10/10 18:21:52;;;;;;;20.63;7.63;;;20.10;61.50;;;;;;6255333;22;20063;-73
2022/10/10 18:24:18;;;;;;;18.30;7.05;;;20.00;61.40;;;;;;6260675;22;20445;-74
2022/10/10 18:26:44;;;;;;;15.32;6.40;;;20.00;61.40;;;;;;6254471;22;20030;-73
2022/10/10 18:29:09;;;;;;;19.50;7.60;;;20.00;61.10;;;;;;6257986;22;20020;-75
2022/10/10 18:31:37;;;;;;;16.52;6.80;;;20.00;61.00;;;;;;6254589;22;20130;-75
2022/10/10 18:34:03;;;;;;;15.57;6.97;;;20.00;61.00;;;;;;6256692;22;20024;-75
2022/10/10 18:36:32;;;;;;;16.48;6.88;;;20.00;60.90;;;;;;6258643;22;20024;-75
2022/10/10 18:38:58;;;;;;;;;;;20.00;60.90;;;;;;6258705;22;20042;-74
2022/10/10 18:41:26;;;;;;;18.08;6.00;;;20.00;60.50;;;;;;6256949;22;19919;-73
2022/10/10 18:43:55;;;;;;;18.13;6.75;;;20.00;60.90;;;;;;6256537;22;20094;-73
2022/10/10 18:46:21;;;;;;;15.95;6.68;;;20.00;60.90;;;;;;6256814;22;20023;-72
2022/10/10 18:48:47;;;;;;;14.77;6.18;;;20.00;61.00;;;;;;6257445;22;20023;-70
2022/10/10 18:51:21;;;;;;;14.73;6.63;;;20.00;61.00;;;;;;6259550;22;20023;-71
2022/10/10 18:53:47;;;;;;;16.58;6.32;;;20.00;61.00;;;;;;6226680;22;20107;-69
2022/10/10 18:56:19;;;;;;;17.00;5.88;;;20.00;61.00;;;;;;6258164;22;20513;-70
2022/10/10 18:58:46;;;;;;;11.98;5.88;;;20.00;61.00;;;;;;6257321;22;20091;-71
2022/10/10 19:01:14;;;;;;;16.48;6.05;;;20.00;61.00;;;;;;6256474;22;20016;-70
2022/10/10 19:03:40;;;;;;;14.70;6.03;;;20.00;61.00;;;;;;6256650;22;20278;-71
2022/10/10 19:06:08;;;;;;;16.92;6.30;;;20.00;61.00;;;;;;6256011;22;20141;-70
2022/10/10 19:08:35;;;;;;;16.17;5.85;;;20.00;61.80;;;;;;6257195;22;20023;-72
2022/10/10 19:11:01;;;;;;;13.18;5.00;;;20.00;63.40;;;;;;6256726;22;20047;-70
2022/10/10 19:13:27;;;;;;;13.77;5.20;;;20.00;61.00;;;;;;6256293;22;20023;-69
2022/10/10 19:15:53;;;;;;;14.55;6.00;;;19.90;61.00;;;;;;6255220;22;21521;-70
2022/10/10 19:18:20;;;;;;;14.60;5.18;;;20.00;61.00;;;;;;6257366;22;20072;-71
2022/10/10 19:20:45;;;;;;;13.15;5.10;;;19.90;61.00;;;;;;6228712;22;20027;-70
2022/10/10 19:23:13;;;;;;;12.30;5.30;;;19.90;61.00;;;;;;6255523;22;20019;-71
2022/10/10 19:25:41;;;;;;;14.38;5.28;;;19.90;60.90;;;;;;6256072;22;20046;-69
2022/10/10 19:28:07;;;;;;;13.50;5.50;;;19.90;61.00;;;;;;6257918;22;20015;-70
2022/10/10 19:30:37;;;;;;;10.73;4.70;;;19.90;60.90;;;;;;6230434;22;20023;-70
2022/10/10 19:33:03;;;;;;;12.07;5.05;;;19.90;60.90;;;;;;6258361;22;20073;-71
2022/10/10 19:35:33;;;;;;;13.40;5.35;;;19.90;60.90;;;;;;6256932;22;20020;-71
2022/10/10 19:37:59;;;;;;;10.98;4.75;;;19.90;60.90;;;;;;6256728;22;20069;-70
2022/10/10 19:40:24;;;;;;;12.07;4.40;;;19.90;60.90;;;;;;6256412;22;20020;-69
2022/10/10 19:42:50;;;;;;;10.95;4.63;;;19.90;60.90;;;;;;6258044;22;20103;-69
2022/10/10 19:45:15;;;;;;;12.32;4.63;;;19.90;61.70;;;;;;6256563;22;20022;-70
2022/10/10 19:47:41;;;;;;;13.80;4.63;;;19.90;60.90;;;;;;6255737;22;20020;-68
2022/10/10 19:50:07;;;;;;;10.43;4.50;;;19.80;60.80;;;;;;6257488;22;20394;-69
2022/10/10 19:52:32;;;;;;;11.43;4.60;;;19.90;60.90;;;;;;6256329;22;20344;-68
2022/10/10 19:54:58;;;;;;;10.25;4.38;;;19.80;60.90;;;;;;6258561;22;20016;-69
2022/10/10 19:57:23;;;;;;;10.70;4.60;;;19.80;60.80;;;;;;6258145;22;20452;-70
2022/10/10 19:59:49;;;;;;;11.50;4.43;;;19.80;60.80;;;;;;6257770;22;20474;-69
2022/10/10 20:02:15;;;;;;;9.63;4.10;;;19.80;60.80;;;;;;6256618;22;20355;-69
2022/10/10 20:04:40;;;;;;;12.82;4.85;;;19.80;61.50;;;;;;6257254;22;20012;-70
2022/10/10 20:07:07;;;;;;;9.55;4.00;;;19.80;60.80;;;;;;6255687;22;20428;-71
2022/10/10 20:09:32;;;;;;;9.10;4.05;;;19.80;60.90;;;;;;6256348;22;20126;-68
2022/10/10 20:11:58;;;;;;;10.05;4.10;;;19.80;60.80;;;;;;6255863;22;20490;-70
2022/10/10 20:14:23;;;;;;;9.35;4.32;;;19.80;60.80;;;;;;6256357;22;20132;-69
2022/10/10 20:16:50;;;;;;;11.68;4.18;;;19.80;60.80;;;;;;6257820;22;20130;-70
2022/10/10 20:19:16;;;;;;;11.82;4.10;;;19.80;60.80;;;;;;6257960;22;20043;-69
2022/10/10 20:21:41;;;;;;;10.25;4.28;;;19.80;60.80;;;;;;6256325;22;20463;-69
2022/10/10 20:24:08;;;;;;;10.73;4.63;;;19.80;60.80;;;;;;6256361;22;20103;-69
2022/10/10 20:26:35;;;;;;;10.55;4.20;;;19.80;60.70;;;;;;6254320;22;20600;-69
2022/10/10 20:29:01;;;;;;;8.20;4.32;;;19.80;60.80;;;;;;6231529;22;20368;-70
2022/10/10 20:31:29;;;;;;;8.55;3.90;;;19.80;60.70;;;;;;6256650;22;20050;-74
2022/10/10 20:33:57;;;;;;;;;;;19.80;60.70;;;;;;6258229;22;20081;-72
2022/10/10 20:36:23;;;;;;;9.67;3.97;;;19.80;60.60;;;;;;6255293;22;19911;-70
2022/10/10 20:39:18;;;;;;;9.43;4.00;;;19.80;60.70;;;;;;6258066;22;20019;-71
2022/10/10 20:41:44;;;;;;;14.68;4.18;;;19.80;60.70;;;;;;6234454;22;20042;-71
2022/10/10 20:44:12;;;;;;;11.05;4.00;;;19.80;60.80;;;;;;6258373;22;20020;-70
2022/10/10 20:46:40;;;;;;;11.07;4.38;;;19.70;60.70;;;;;;6253468;22;20027;-69
2022/10/10 20:49:10;;;;;;;11.27;4.30;;;19.80;60.70;;;;;;6257110;22;20016;-71
2022/10/10 20:51:36;;;;;;;14.02;4.30;;;19.70;60.60;;;;;;6255330;22;20023;-70
2022/10/10 20:54:04;;;;;;;7.97;3.63;;;19.80;60.70;;;;;;6252909;22;20722;-70
2022/10/10 20:56:30;;;;;;;10.55;3.70;;;19.70;60.50;;;;;;6254779;22;20332;-70
2022/10/10 20:58:56;;;;;;;10.57;3.80;;;19.70;60.50;;;;;;6255569;22;20031;-71
2022/10/10 21:01:25;;;;;;;9.98;3.88;;;19.70;60.50;;;;;;6254327;22;20099;-70
2022/10/10 21:03:51;;;;;;;12.07;4.10;;;19.70;60.50;;;;;;6256585;22;20016;-70
2022/10/10 21:06:21;;;;;;;8.90;3.83;;;19.70;60.50;;;;;;6255236;22;20034;-70
2022/10/10 21:08:47;;;;;;;11.20;3.63;;;19.70;60.50;;;;;;6256524;22;20016;-71
2022/10/10 21:11:14;;;;;;;9.68;3.70;;;19.70;60.50;;;;;;6255538;22;20026;-71
2022/10/10 21:13:43;;;;;;;11.32;4.07;;;19.70;60.50;;;;;;6255813;22;20539;-71
2022/10/10 21:16:14;;;;;;;8.48;3.67;;;19.70;60.50;;;;;;6255361;22;20509;-70
2022/10/10 21:18:41;;;;;;;11.93;3.65;;;19.70;60.50;;;;;;6257678;22;20098;-70
2022/10/10 21:21:07;;;;;;;7.90;3.40;;;19.70;60.40;;;;;;6256196;22;20545;-70
2022/10/10 21:23:39;;;;;;;8.40;3.10;;;19.70;60.40;;;;;;6254950;22;20031;-70
2022/10/10 21:26:13;;;;;;;8.98;3.38;;;19.70;60.40;;;;;;6257874;22;20467;-70
2022/10/10 21:28:39;;;;;;;13.73;4.03;;;19.70;60.40;;;;;;6255383;22;20021;-70
2022/10/10 21:31:05;;;;;;;10.95;3.70;;;19.60;60.30;;;;;;6256206;22;20049;-71
2022/10/10 21:33:33;;;;;;;13.88;3.20;;;19.70;60.40;;;;;;6254094;22;20015;-71
2022/10/10 21:35:59;;;;;;;8.37;3.63;;;19.70;60.30;;;;;;6257942;22;20034;-70
2022/10/10 21:38:25;;;;;;;11.50;3.53;;;19.70;60.30;;;;;;6255066;22;20523;-70
2022/10/10 21:40:51;;;;;;;8.35;3.22;;;19.70;60.30;;;;;;6254884;22;20470;-71
2022/10/10 21:43:17;;;;;;;11.35;3.47;;;19.70;60.30;;;;;;6256054;22;20058;-70
2022/10/10 21:45:44;;;;;;;8.07;3.20;;;19.70;60.30;;;;;;6254430;22;20027;-71
2022/10/10 21:48:11;;;;;;;8.50;3.22;;;19.70;60.20;;;;;;6256311;22;20015;-72
2022/10/10 21:50:37;;;;;;;6.72;2.85;;;19.70;60.30;;;;;;6256886;22;20022;-72
2022/10/10 21:53:05;;;;;;;12.82;3.50;;;19.70;60.30;;;;;;6255643;22;20020;-71
2022/10/10 21:55:31;;;;;;;8.63;3.13;;;19.70;60.40;;;;;;6256911;22;20019;-71
2022/10/10 21:57:56;;;;;;;5.63;2.75;;;19.60;60.30;;;;;;6257608;22;20403;-71
2022/10/10 22:00:22;;;;;;;8.00;2.80;;;19.70;61.10;;;;;;6255008;22;20329;-72
2022/10/10 22:02:48;;;;;;;9.73;3.40;;;19.70;60.30;;;;;;6254823;22;20047;-72
2022/10/10 22:05:14;;;;;;;6.88;3.15;;;19.70;60.30;;;;;;6256602;22;20019;-72
2022/10/10 22:07:41;;;;;;;8.85;3.03;;;19.70;60.20;;;;;;6253533;22;20019;-72
2022/10/10 22:10:13;;;;;;;7.78;3.00;;;19.70;60.20;;;;;;6255765;22;20017;-71
2022/10/10 22:12:39;;;;;;;9.45;2.92;;;19.60;60.10;;;;;;6255936;22;20035;-71
2022/10/10 22:15:06;;;;;;;9.95;2.95;;;19.60;60.20;;;;;;6255081;22;20026;-71
2022/10/10 22:17:31;;;;;;;7.30;2.70;;;19.70;60.30;;;;;;6255243;22;20020;-71
2022/10/10 22:19:57;;;;;;;6.50;2.58;;;19.60;60.20;;;;;;6257062;22;20015;-71
2022/10/10 22:22:22;;;;;;;8.50;2.70;;;19.60;60.10;;;;;;6256650;22;20020;-70
2022/10/10 22:24:48;;;;;;;5.68;2.75;;;19.60;60.10;;;;;;6255493;22;20024;-70
2022/10/10 22:27:17;;;;;;;6.95;2.72;;;19.60;60.10;;;;;;6257471;22;20115;-71
2022/10/10 22:29:43;;;;;;;8.90;2.97;;;19.60;60.00;;;;;;6256079;22;20030;-76
2022/10/10 22:32:08;;;;;;;6.95;2.40;;;19.60;60.00;;;;;;6255701;22;20019;-72
2022/10/10 22:34:34;;;;;;;7.43;2.75;;;19.60;60.00;;;;;;6254141;22;20098;-72
2022/10/10 22:37:01;;;;;;;7.65;2.83;;;19.60;60.00;;;;;;6255905;22;20058;-71
2022/10/10 22:39:27;;;;;;;6.10;2.63;;;19.60;59.90;;;;;;6257041;22;20069;-71
2022/10/10 22:41:53;;;;;;;5.72;2.55;;;19.60;59.80;;;;;;6255920;22;20093;-71
2022/10/10 22:44:19;;;;;;;7.55;2.70;;;19.60;59.80;;;;;;6231482;22;20348;-71
2022/10/10 22:46:45;;;;;;;8.25;2.60;;;19.60;59.80;;;;;;6255173;22;20035;-71
2022/10/10 22:49:12;;;;;;;6.15;2.60;;;19.60;59.80;;;;;;6260932;22;20011;-70
2022/10/10 22:51:37;;;;;;;8.43;2.88;;;19.60;59.70;;;;;;6259160;22;20361;-70
2022/10/10 22:54:03;;;;;;;6.72;2.38;;;19.60;59.70;;;;;;6259224;22;20073;-71
2022/10/10 22:56:29;;;;;;;5.68;2.17;;;19.50;59.60;;;;;;6259693;22;20020;-70
2022/10/10 22:58:54;;;;;;;5.93;2.38;;;19.60;59.60;;;;;;6257188;22;20409;-70
2022/10/10 23:01:23;;;;;;;7.28;2.60;;;19.50;59.50;;;;;;6256007;22;20119;-71
2022/10/10 23:03:49;;;;;;;6.40;2.22;;;19.50;59.50;;;;;;6257848;22;20016;-70
2022/10/10 23:06:15;;;;;;;6.53;2.50;;;19.50;59.50;;;;;;6258599;22;20356;-71
2022/10/10 23:08:40;;;;;;;6.60;2.50;;;19.50;59.50;;;;;;6255487;22;20026;-71
2022/10/10 23:11:06;;;;;;;6.22;2.50;;;19.50;59.40;;;;;;6260371;22;20023;-72
2022/10/10 23:13:32;;;;;;;5.95;2.60;;;19.50;59.40;;;;;;6258724;22;20057;-69
2022/10/10 23:15:58;;;;;;;6.28;2.38;;;19.50;59.40;;;;;;6257035;22;20015;-71
2022/10/10 23:18:23;;;;;;;7.03;2.28;;;19.50;59.30;;;;;;6261669;22;20015;-71
2022/10/10 23:20:49;;;;;;;8.60;2.70;;;19.50;59.30;;;;;;6254832;22;20747;-70
2022/10/10 23:23:17;;;;;;;7.13;2.50;;;19.50;59.20;;;;;;6257685;22;20026;-70
2022/10/10 23:25:44;;;;;;;5.57;2.08;;;19.50;59.30;;;;;;6256633;22;20012;-71
2022/10/10 23:28:11;;;;;;;5.50;2.23;;;19.50;59.20;;;;;;6257997;22;20015;-70
2022/10/10 23:30:42;;;;;;;8.45;2.58;;;19.50;59.20;;;;;;6255661;22;20273;-70
2022/10/10 23:33:08;;;;;;;6.75;2.30;;;19.50;59.20;;;;;;6257112;22;20326;-70
2022/10/10 23:35:34;;;;;;;6.95;2.28;;;19.50;59.10;;;;;;6258110;22;20007;-70
2022/10/10 23:38:00;;;;;;;5.45;2.33;;;19.50;59.10;;;;;;6258550;22;20170;-70
2022/10/10 23:40:26;;;;;;;6.57;2.33;;;19.50;59.10;;;;;;6259884;22;20056;-70
2022/10/10 23:42:52;;;;;;;7.05;2.20;;;19.50;59.10;;;;;;6257330;22;20497;-71
2022/10/10 23:45:19;;;;;;;7.38;2.22;;;19.50;59.00;;;;;;6259736;22;20011;-69
2022/10/10 23:47:44;;;;;;;4.05;1.83;;;19.50;59.00;;;;;;6255740;22;20020;-70
2022/10/10 23:50:10;;;;;;;6.97;2.10;;;19.50;59.00;;;;;;6257481;22;20019;-70
2022/10/10 23:52:36;;;;;;;4.50;1.90;;;19.40;58.90;;;;;;6257927;22;20099;-70
2022/10/10 23:55:02;;;;;;;6.20;1.80;;;19.40;58.90;;;;;;6257438;22;20015;-71
2022/10/10 23:57:28;;;;;;;4.75;1.95;;;19.50;59.00;;;;;;6258431;22;20348;-70
2022/10/10 23:59:53;;;;;;;3.50;1.85;;;19.40;58.80;;;;;;6257278;22;20066;-70
